Time;durP1;ratioP1;P1;durP2;ratioP2;P2;SDS_P1;SDS_P2;PMS_P1;PMS_P2;Temp;Humidity;BMP_temperature;BMP_pressure;BME280_temperature;BME280_humidity;BME280_pressure;Samples;Min_cycle;Max_cycle;Signal;HPM_P1;HPM_P2
2022/07/13 00:01:16;;;;;;;3.28;2.80;;;;;;;20.36;54.75;99723.34;5071828;28;20210;-53
2022/07/13 00:03:43;;;;;;;2.67;2.50;;;;;;;20.36;54.72;99723.34;5071798;28;20210;-53
2022/07/13 00:06:10;;;;;;;3.35;2.70;;;;;;;20.30;54.65;99719.31;5072388;28;20728;-53
2022/07/13 00:08:37;;;;;;;3.97;2.85;;;;;;;20.24;54.91;99718.84;5071403;28;20223;-53
2022/07/13 00:11:04;;;;;;;5.00;2.90;;;;;;;20.09;55.33;99722.50;5071615;28;20230;-52
2022/07/13 00:13:32;;;;;;;6.93;3.10;;;;;;;20.09;55.09;99718.06;5071476;28;20281;-52
2022/07/13 00:16:00;;;;;;;4.40;2.45;;;;;;;20.03;55.37;99725.53;5071734;28;20195;-62
2022/07/13 00:18:27;;;;;;;3.85;2.80;;;;;;;19.98;55.43;99728.44;5071790;28;20320;-62
2022/07/13 00:20:54;;;;;;;2.90;2.70;;;;;;;19.95;55.51;99720.75;5071686;28;20585;-52
2022/07/13 00:23:21;;;;;;;4.07;2.53;;;;;;;19.94;55.50;99727.81;5071323;28;20192;-53
2022/07/13 00:25:47;;;;;;;2.58;2.38;;;;;;;19.97;55.59;99718.88;5071414;28;20293;-52
2022/07/13 00:28:14;;;;;;;3.03;2.80;;;;;;;19.96;55.60;99729.50;5071260;28;20192;-62
2022/07/13 00:30:43;;;;;;;4.35;2.92;;;;;;;19.79;55.25;99701.59;5071392;28;20584;-61
2022/07/13 00:33:10;;;;;;;2.85;2.28;;;;;;;19.95;54.84;99728.66;5071504;28;20192;-61
2022/07/13 00:35:37;;;;;;;2.95;2.38;;;;;;;19.92;54.98;99724.41;5071012;28;20203;-61
2022/07/13 00:38:04;;;;;;;3.42;2.55;;;;;;;19.98;54.68;99725.81;5071028;28;20224;-61
2022/07/13 00:40:31;;;;;;;5.35;2.30;;;;;;;20.00;54.32;99729.19;5071024;28;20281;-61
2022/07/13 00:42:58;;;;;;;2.45;2.22;;;;;;;20.00;54.38;99726.56;5071010;28;20230;-62
2022/07/13 00:45:25;;;;;;;2.40;2.20;;;;;;;20.03;54.23;99726.38;5071348;28;20699;-61
2022/07/13 00:47:55;;;;;;;2.42;2.30;;;;;;;20.10;54.03;99725.00;5070878;28;20206;-61
2022/07/13 00:50:22;;;;;;;2.50;2.30;;;;;;;20.09;53.37;99720.69;5070781;28;20199;-62
2022/07/13 00:52:50;;;;;;;2.47;2.17;;;;;;;20.10;53.09;99724.16;5070681;28;20279;-62
2022/07/13 00:55:17;;;;;;;2.17;2.08;;;;;;;20.07;53.17;99722.59;5070597;28;20193;-62
2022/07/13 00:57:44;;;;;;;4.60;2.28;;;;;;;19.98;53.39;99710.00;5070804;28;20223;-62
2022/07/13 01:00:13;;;;;;;3.30;2.33;;;;;;;20.11;53.21;99718.81;5070690;28;20203;-62
2022/07/13 01:02:41;;;;;;;3.65;2.25;;;;;;;20.12;53.37;99719.66;5070651;28;20200;-62
2022/07/13 01:05:11;;;;;;;2.97;2.50;;;;;;;20.10;53.58;99717.09;5070452;28;20201;-62
2022/07/13 01:07:39;;;;;;;2.67;2.22;;;;;;;20.14;53.17;99723.88;5070579;28;20263;-53
2022/07/13 01:10:08;;;;;;;2.72;2.53;;;;;;;20.11;53.37;99712.69;5069843;28;20640;-53
2022/07/13 01:12:36;;;;;;;2.85;2.33;;;;;;;20.08;53.51;99713.75;5070566;28;20324;-53
2022/07/13 01:15:05;;;;;;;2.60;2.50;;;;;;;20.09;53.50;99714.59;5070524;28;20203;-54
2022/07/13 01:17:33;;;;;;;3.60;2.53;;;;;;;20.04;53.88;99717.53;5070212;28;20215;-54
2022/07/13 01:20:00;;;;;;;2.95;2.30;;;;;;;20.00;53.88;99721.28;5070344;28;20200;-62
2022/07/13 01:22:35;;;;;;;2.58;2.47;;;;;;;20.04;53.82;99717.53;5070272;28;20261;-62
2022/07/13 01:25:04;;;;;;;3.55;2.30;;;;;;;20.01;54.01;99711.59;5070410;28;20191;-53
2022/07/13 01:27:33;;;;;;;3.47;2.75;;;;;;;20.00;54.36;99715.16;5070159;28;20279;-53
2022/07/13 01:30:01;;;;;;;2.60;2.40;;;;;;;19.94;54.12;99706.72;5070457;28;20204;-62
2022/07/13 01:32:28;;;;;;;4.15;2.10;;;;;;;19.93;54.09;99706.81;5070170;28;20641;-62
2022/07/13 01:34:54;;;;;;;4.32;2.28;;;;;;;19.85;54.16;99686.25;5069918;28;20242;-53
2022/07/13 01:37:21;;;;;;;4.22;2.28;;;;;;;19.91;54.29;99703.44;5070110;28;20245;-62
2022/07/13 01:39:48;;;;;;;3.83;2.53;;;;;;;19.86;54.56;99697.63;5069825;28;20198;-62
2022/07/13 01:42:17;;;;;;;5.18;2.53;;;;;;;19.75;54.78;99694.84;5069841;28;20196;-62
2022/07/13 01:44:48;;;;;;;5.07;2.53;;;;;;;19.71;54.93;99693.34;5070190;28;20282;-62
2022/07/13 01:47:14;;;;;;;3.67;2.90;;;;;;;19.64;55.19;99702.56;5069736;28;20230;-63
2022/07/13 01:49:41;;;;;;;2.47;2.28;;;;;;;19.64;55.01;99694.69;5069718;28;20223;-63
2022/07/13 01:52:08;;;;;;;4.97;2.40;;;;;;;19.60;54.99;99701.91;5069759;28;20199;-63
2022/07/13 01:54:35;;;;;;;4.85;2.40;;;;;;;19.67;54.83;99692.69;5069680;28;20199;-63
2022/07/13 01:57:02;;;;;;;3.43;2.67;;;;;;;19.61;55.09;99700.13;5069813;28;20200;-63
2022/07/13 01:59:30;;;;;;;2.55;2.20;;;;;;;19.63;55.02;99698.25;5069775;28;20196;-63
2022/07/13 02:01:57;;;;;;;2.45;2.30;;;;;;;19.67;55.20;99694.47;5069519;28;20616;-63
2022/07/13 02:04:25;;;;;;;2.40;2.20;;;;;;;19.71;54.93;99703.88;5069549;28;20238;-62
2022/07/13 02:06:52;;;;;;;3.22;2.50;;;;;;;19.63;54.94;99692.97;5069469;28;20196;-62
2022/07/13 02:09:19;;;;;;;2.88;2.67;;;;;;;19.64;55.09;99692.03;5069388;28;20613;-63
2022/07/13 02:11:46;;;;;;;3.65;2.60;;;;;;;19.64;55.13;99692.03;5069542;28;20282;-63
2022/07/13 02:14:13;;;;;;;3.17;2.40;;;;;;;19.58;54.98;99696.75;5069762;28;20284;-63
2022/07/13 02:16:41;;;;;;;2.47;2.37;;;;;;;19.53;55.26;99696.16;5069347;28;20911;-63
2022/07/13 02:19:08;;;;;;;2.58;2.38;;;;;;;19.51;55.22;99692.81;5069574;28;20800;-63
2022/07/13 02:21:35;;;;;;;2.85;2.60;;;;;;;19.45;55.43;99690.50;5069318;28;20595;-63
2022/07/13 02:24:02;;;;;;;4.10;3.72;;;;;;;19.40;55.41;99687.34;5069948;28;20202;-53
2022/07/13 02:26:29;;;;;;;4.05;3.65;;;;;;;19.43;55.72;99691.53;5069503;28;20287;-53
2022/07/13 02:28:56;;;;;;;4.40;3.45;;;;;;;19.45;55.65;99694.94;5069229;28;20198;-53
2022/07/13 02:31:23;;;;;;;4.20;2.63;;;;;;;19.42;55.59;99693.31;5069382;28;20212;-53
2022/07/13 02:33:51;;;;;;;2.65;2.50;;;;;;;19.39;55.50;99698.81;5069502;28;20206;-64
2022/07/13 02:36:18;;;;;;;2.92;2.25;;;;;;;19.43;55.44;99695.03;5069314;28;20211;-64
2022/07/13 02:38:45;;;;;;;5.60;2.60;;;;;;;19.43;55.62;99694.19;5069183;28;20223;-64
2022/07/13 02:41:12;;;;;;;2.55;2.45;;;;;;;19.43;55.62;99694.19;5069425;28;20591;-64
2022/07/13 02:43:39;;;;;;;4.00;2.40;;;;;;;19.30;55.78;99696.72;5069032;28;20287;-63
2022/07/13 02:46:06;;;;;;;2.70;2.60;;;;;;;19.32;55.86;99697.47;5069661;28;20684;-62
2022/07/13 02:48:35;;;;;;;2.83;2.60;;;;;;;19.23;56.31;99706.78;5069497;28;20737;-63
2022/07/13 02:51:03;;;;;;;4.10;2.63;;;;;;;19.24;56.37;99699.75;5069502;28;20218;-53
2022/07/13 02:53:30;;;;;;;2.90;2.67;;;;;;;19.24;56.67;99702.38;5069485;28;20283;-53
2022/07/13 02:55:58;;;;;;;3.13;2.37;;;;;;;19.19;56.85;99702.63;5068997;28;20202;-53
2022/07/13 02:58:25;;;;;;;3.17;2.20;;;;;;;19.20;56.58;99700.84;5068922;28;20223;-53
2022/07/13 03:00:52;;;;;;;3.70;2.50;;;;;;;19.17;56.87;99704.53;5069238;28;20584;-53
2022/07/13 03:03:19;;;;;;;4.25;2.90;;;;;;;19.14;56.96;99699.47;5068977;28;20210;-53
2022/07/13 03:05:46;;;;;;;2.88;2.58;;;;;;;19.16;57.12;99697.59;5069003;28;20196;-53
2022/07/13 03:08:14;;;;;;;6.18;2.80;;;;;;;19.14;56.90;99691.56;5068861;28;20318;-53
2022/07/13 03:10:41;;;;;;;2.80;2.60;;;;;;;19.11;57.25;99693.53;5068704;28;20199;-53
2022/07/13 03:13:08;;;;;;;2.67;2.45;;;;;;;19.06;57.14;99687.72;5069411;28;20231;-63
2022/07/13 03:15:35;;;;;;;4.73;2.50;;;;;;;18.99;57.25;99697.75;5069254;28;20289;-63
2022/07/13 03:18:03;;;;;;;2.50;2.40;;;;;;;19.03;57.37;99687.91;5068577;28;20216;-53
2022/07/13 03:20:30;;;;;;;3.70;2.60;;;;;;;19.04;56.87;99698.34;5068872;28;21006;-54
2022/07/13 03:22:57;;;;;;;3.28;2.50;;;;;;;19.09;56.68;99696.25;5062912;28;20223;-52
2022/07/13 03:25:25;;;;;;;3.00;2.75;;;;;;;19.17;56.00;99699.28;5068507;28;20289;-53
2022/07/13 03:27:52;;;;;;;4.73;2.73;;;;;;;19.20;55.95;99700.84;5068854;28;20220;-53
2022/07/13 03:30:19;;;;;;;2.53;2.33;;;;;;;19.31;55.33;99702.84;5066136;28;20251;-60
2022/07/13 03:32:48;;;;;;;2.97;2.55;;;;;;;19.45;55.00;99701.03;5069842;28;20326;-60
2022/07/13 03:35:15;;;;;;;4.30;2.25;;;;;;;19.58;54.42;99694.09;5072129;28;20780;-60
2022/07/13 03:37:42;;;;;;;2.33;2.22;;;;;;;19.74;53.96;99693.16;5071254;28;20712;-60
2022/07/13 03:40:10;;;;;;;2.60;2.47;;;;;;;19.85;54.01;99701.22;5072375;28;20224;-62
2022/07/13 03:42:39;;;;;;;4.03;2.50;;;;;;;19.91;52.93;99703.44;5070768;28;20224;-53
2022/07/13 03:45:07;;;;;;;8.27;2.50;;;;;;;19.92;52.48;99691.97;5071164;28;20747;-53
2022/07/13 03:47:34;;;;;;;4.13;2.50;;;;;;;20.06;52.68;99705.09;5070634;28;20307;-54
2022/07/13 03:50:02;;;;;;;3.35;2.38;;;;;;;20.23;52.45;99712.72;5070796;28;20653;-54
2022/07/13 03:52:28;;;;;;;2.53;2.35;;;;;;;20.38;51.93;99694.25;5070305;28;20302;-54
2022/07/13 03:54:55;;;;;;;2.17;2.08;;;;;;;20.58;51.29;99713.09;5069719;28;20199;-54
2022/07/13 03:57:22;;;;;;;2.53;2.25;;;;;;;21.05;49.86;99710.81;5064660;28;20707;-54
2022/07/13 03:59:51;;;;;;;3.55;2.45;;;;;;;22.62;45.82;99708.28;5062019;28;20322;-54
2022/07/13 04:02:18;;;;;;;4.05;2.20;;;;;;;24.53;41.55;99708.09;5062929;28;20227;-56
2022/07/13 04:04:44;;;;;;;3.72;1.92;;;;;;;26.01;37.90;99710.25;5063972;28;20192;-56
2022/07/13 04:07:11;;;;;;;2.33;2.13;;;;;;;27.66;34.79;99710.88;5068944;28;20605;-54
2022/07/13 04:09:38;;;;;;;3.33;3.13;;;;;;;28.37;33.29;99721.69;5065155;28;20210;-55
2022/07/13 04:12:05;;;;;;;3.80;2.97;;;;;;;29.59;31.24;99726.09;5067076;28;20273;-55
2022/07/13 04:14:32;;;;;;;3.05;1.98;;;;;;;30.76;29.19;99728.75;5064925;28;20203;-54
2022/07/13 04:17:01;;;;;;;2.20;2.00;;;;;;;31.42;28.14;99725.81;5049714;28;20716;-54
2022/07/13 04:19:28;;;;;;;2.75;2.55;;;;;;;32.36;27.01;99738.31;5066037;28;20224;-55
2022/07/13 04:21:54;;;;;;;4.55;2.72;;;;;;;33.23;25.54;99741.44;5068970;28;20235;-53
2022/07/13 04:24:21;;;;;;;2.95;2.33;;;;;;;33.12;25.56;99740.88;5069843;28;20275;-54
2022/07/13 04:26:48;;;;;;;2.45;2.10;;;;;;;33.88;25.47;99736.19;5069633;28;20296;-55
2022/07/13 04:29:15;;;;;;;5.00;4.60;;;;;;;34.15;24.71;99743.56;5070784;28;20554;-55
2022/07/13 04:31:42;;;;;;;2.78;2.58;;;;;;;34.55;24.04;99739.41;5070766;28;20194;-56
2022/07/13 04:34:10;;;;;;;4.03;3.13;;;;;;;35.00;23.69;99734.63;5058604;28;20196;-54
2022/07/13 04:36:37;;;;;;;5.05;3.75;;;;;;;34.70;23.77;99739.34;5070398;28;20192;-54
2022/07/13 04:39:04;;;;;;;3.58;3.35;;;;;;;35.12;23.86;99743.84;5070224;28;20234;-55
2022/07/13 04:41:32;;;;;;;5.35;4.90;;;;;;;35.44;23.53;99749.72;5069940;28;20480;-55
2022/07/13 04:43:58;;;;;;;10.07;9.18;;;;;;;34.92;23.83;99746.41;5070115;28;20679;-55
2022/07/13 04:46:26;;;;;;;16.88;6.25;;;;;;;35.36;23.72;99748.00;5069494;28;20650;-55
2022/07/13 04:48:52;;;;;;;8.55;3.85;;;;;;;35.98;23.23;99752.50;5069454;28;20188;-55
2022/07/13 04:51:21;;;;;;;3.28;3.03;;;;;;;35.92;22.87;99754.13;5070154;28;20662;-55
2022/07/13 04:53:48;;;;;;;17.92;6.30;;;;;;;36.32;23.14;99751.59;5070931;28;20200;-56
2022/07/13 04:56:15;;;;;;;4.75;3.00;;;;;;;36.99;22.24;99751.44;5070772;28;20203;-55
2022/07/13 04:58:42;;;;;;;2.30;2.10;;;;;;;37.77;21.09;99755.09;5070649;28;20223;-56
2022/07/13 05:01:09;;;;;;;4.20;3.30;;;;;;;38.01;20.80;99760.81;5070533;28;20202;-56
2022/07/13 05:03:36;;;;;;;4.82;2.90;;;;;;;37.86;21.37;99763.78;5070552;28;20195;-55
2022/07/13 05:06:03;;;;;;;2.70;2.50;;;;;;;38.09;20.93;99758.72;5070566;28;20286;-55
2022/07/13 05:08:31;;;;;;;2.80;2.58;;;;;;;38.21;20.43;99763.44;5070273;28;20316;-55
2022/07/13 05:10:58;;;;;;;3.75;2.35;;;;;;;37.88;20.90;99761.72;5070409;28;20289;-57
2022/07/13 05:13:25;;;;;;;3.20;2.33;;;;;;;37.67;20.88;99770.13;5070348;28;20638;-58
2022/07/13 05:15:52;;;;;;;2.10;2.00;;;;;;;37.82;21.16;99759.00;5070424;28;20290;-54
2022/07/13 05:18:19;;;;;;;2.80;2.55;;;;;;;38.13;20.95;99765.38;5070718;28;20218;-58
2022/07/13 05:20:46;;;;;;;3.25;2.50;;;;;;;37.27;21.60;99767.47;5070789;28;20192;-58
2022/07/13 05:23:13;;;;;;;2.85;2.58;;;;;;;37.25;21.28;99758.72;5070479;28;20192;-55
2022/07/13 05:25:41;;;;;;;4.93;2.53;;;;;;;37.49;21.78;99768.03;5070101;28;20227;-55
2022/07/13 05:28:08;;;;;;;2.97;2.03;;;;;;;38.07;20.76;99774.34;5070045;28;20200;-55
2022/07/13 05:30:35;;;;;;;2.92;2.65;;;;;;;37.25;21.68;99761.44;5069758;28;20294;-55
2022/07/13 05:33:02;;;;;;;5.70;4.22;;;;;;;37.20;21.47;99772.06;5070137;28;20195;-55
2022/07/13 05:35:29;;;;;;;4.03;3.65;;;;;;;37.30;21.68;99775.19;5070001;28;20195;-55
2022/07/13 05:37:56;;;;;;;2.83;1.70;;;;;;;37.34;21.66;99760.19;5069861;28;20202;-55
2022/07/13 05:40:23;;;;;;;6.15;3.25;;;;;;;37.83;20.90;99764.22;5069371;28;20215;-54
2022/07/13 05:42:52;;;;;;;4.57;4.18;;;;;;;38.10;20.85;99770.41;5069765;28;20290;-54
2022/07/13 05:45:19;;;;;;;2.75;2.22;;;;;;;37.64;20.91;99775.97;5069803;28;20269;-55
2022/07/13 05:47:47;;;;;;;3.85;2.00;;;;;;;37.66;21.31;99776.59;5069769;28;20620;-55
2022/07/13 05:50:14;;;;;;;7.10;2.22;;;;;;;37.75;20.89;99761.75;5069726;28;20308;-54
2022/07/13 05:52:41;;;;;;;5.38;1.80;;;;;;;38.21;20.75;99766.16;5069735;28;20214;-55
2022/07/13 05:55:10;;;;;;;5.88;2.17;;;;;;;38.00;21.74;99759.16;5069388;28;20203;-55
2022/07/13 05:57:37;;;;;;;3.05;2.20;;;;;;;37.74;20.89;99755.50;5069633;28;20213;-55
2022/07/13 06:00:10;;;;;;;4.00;2.60;;;;;;;37.78;20.98;99742.38;5069681;28;20326;-55
2022/07/13 06:02:37;;;;;;;5.22;2.22;;;;;;;37.91;20.83;99755.03;5069430;28;20589;-55
2022/07/13 06:05:05;;;;;;;7.07;1.48;;;;;;;37.81;20.74;99760.09;5069560;28;20601;-56
2022/07/13 06:07:32;;;;;;;3.33;1.80;;;;;;;37.66;20.98;99754.91;5068758;28;20220;-55
2022/07/13 06:10:01;;;;;;;4.30;1.63;;;;;;;37.51;21.08;99749.72;5067972;28;20237;-55
2022/07/13 06:12:28;;;;;;;5.03;2.25;;;;;;;37.77;20.91;99754.25;5068534;28;20199;-58
2022/07/13 06:14:55;;;;;;;2.85;1.60;;;;;;;37.21;21.19;99743.97;5068936;28;20196;-59
2022/07/13 06:17:23;;;;;;;5.45;1.75;;;;;;;37.46;21.22;99738.69;5069442;28;20293;-57
2022/07/13 06:19:51;;;;;;;1.80;1.50;;;;;;;37.18;21.40;99736.25;5068795;28;20231;-54
2022/07/13 06:22:18;;;;;;;2.00;1.80;;;;;;;36.95;21.74;99738.53;5069265;28;20195;-55
2022/07/13 06:24:45;;;;;;;6.05;2.10;;;;;;;36.54;22.10;99731.44;5069329;28;20242;-54
2022/07/13 06:27:12;;;;;;;3.08;1.67;;;;;;;36.10;22.54;99734.66;5068887;28;20278;-54
2022/07/13 06:29:39;;;;;;;7.28;1.70;;;;;;;36.55;22.23;99738.50;5068748;28;20202;-55
2022/07/13 06:32:07;;;;;;;7.78;1.48;;;;;;;36.46;22.71;99736.22;5069189;28;20595;-55
2022/07/13 06:34:35;;;;;;;3.63;1.60;;;;;;;36.31;22.25;99742.63;5069399;28;20194;-55
2022/07/13 06:37:02;;;;;;;6.50;1.50;;;;;;;36.58;22.33;99729.13;5069367;28;20195;-59
2022/07/13 06:39:29;;;;;;;4.00;1.85;;;;;;;36.10;22.37;99733.81;5069735;28;20219;-58
2022/07/13 06:41:56;;;;;;;3.25;2.10;;;;;;;36.08;23.18;99736.72;5069509;28;20192;-58
2022/07/13 06:44:23;;;;;;;3.63;1.58;;;;;;;35.76;22.34;99740.97;5069578;28;20259;-58
2022/07/13 06:46:50;;;;;;;1.75;1.60;;;;;;;35.36;22.50;99733.66;5069365;28;20203;-56
2022/07/13 06:49:17;;;;;;;5.93;1.90;;;;;;;35.42;22.61;99735.59;5069306;28;20188;-56
2022/07/13 06:51:45;;;;;;;3.90;1.90;;;;;;;35.21;22.87;99729.19;5068792;28;20279;-56
2022/07/13 06:54:12;;;;;;;3.47;1.80;;;;;;;34.65;26.99;99716.72;5069047;28;20196;-55
2022/07/13 06:56:39;;;;;;;2.47;1.88;;;;;;;34.22;24.70;99719.34;5069006;28;20200;-56
2022/07/13 06:59:06;;;;;;;3.38;2.38;;;;;;;33.80;25.03;99728.22;5069197;28;20223;-55
2022/07/13 07:01:33;;;;;;;3.25;2.10;;;;;;;33.61;24.74;99720.69;5068660;28;20227;-55
2022/07/13 07:04:00;;;;;;;11.32;1.70;;;;;;;33.88;27.10;99714.63;5068893;28;20273;-55
2022/07/13 07:06:27;;;;;;;5.65;2.00;;;;;;;33.96;25.08;99717.22;5068808;28;20196;-55
2022/07/13 07:08:56;;;;;;;12.35;1.70;;;;;;;33.63;25.02;99703.34;5071686;28;20231;-56
2022/07/13 07:11:22;;;;;;;4.30;1.70;;;;;;;34.07;24.38;99702.44;5072748;28;20288;-56
2022/07/13 07:13:50;;;;;;;5.85;1.75;;;;;;;34.61;24.41;99705.47;5072680;28;20310;-55
2022/07/13 07:16:17;;;;;;;1.80;1.70;;;;;;;34.87;23.12;99711.13;5072943;28;20196;-55
2022/07/13 07:18:44;;;;;;;4.30;1.50;;;;;;;34.57;22.69;99715.81;5071992;28;20227;-55
2022/07/13 07:21:11;;;;;;;4.00;1.45;;;;;;;34.51;23.41;99718.44;5072478;28;20236;-55
2022/07/13 07:23:38;;;;;;;1.95;1.35;;;;;;;34.41;22.95;99715.25;5072586;28;20647;-55
2022/07/13 07:26:06;;;;;;;3.92;1.52;;;;;;;34.51;23.00;99715.75;5072412;28;20232;-56
2022/07/13 07:28:33;;;;;;;2.75;1.17;;;;;;;34.22;23.88;99716.66;5072172;28;20206;-59
2022/07/13 07:31:00;;;;;;;1.70;1.60;;;;;;;34.16;23.75;99718.28;5072338;28;20650;-54
2022/07/13 07:33:27;;;;;;;4.38;1.20;;;;;;;34.11;23.63;99717.16;5072135;28;20249;-55
2022/07/13 07:35:54;;;;;;;1.73;1.50;;;;;;;34.33;23.46;99707.25;5072344;28;20210;-55
2022/07/13 07:38:21;;;;;;;4.13;1.40;;;;;;;34.57;23.90;99717.66;5072256;28;20732;-56
2022/07/13 07:40:48;;;;;;;1.50;1.40;;;;;;;34.66;23.44;99719.19;5072110;28;20219;-55
2022/07/13 07:43:16;;;;;;;2.63;1.70;;;;;;;34.80;23.71;99709.38;5072797;28;20197;-59
2022/07/13 07:45:43;;;;;;;1.50;1.40;;;;;;;35.03;22.83;99714.53;5072151;28;20688;-58
2022/07/13 07:48:10;;;;;;;1.73;1.42;;;;;;;35.15;23.21;99715.66;5072688;28;20578;-55
2022/07/13 07:50:37;;;;;;;3.70;1.20;;;;;;;35.33;22.22;99718.69;5072180;28;20279;-55
2022/07/13 07:53:04;;;;;;;1.70;1.50;;;;;;;35.86;22.40;99714.41;5071960;28;20301;-55
2022/07/13 07:55:31;;;;;;;1.20;1.10;;;;;;;36.21;22.06;99722.41;5072038;28;20192;-55
2022/07/13 07:57:58;;;;;;;8.30;1.45;;;;;;;36.58;21.26;99713.75;5072145;28;20196;-57
2022/07/13 08:00:26;;;;;;;1.60;1.50;;;;;;;36.88;21.04;99726.91;5071861;28;20277;-58
2022/07/13 08:02:53;;;;;;;1.50;1.40;;;;;;;37.14;20.85;99723.31;5072211;28;20686;-58
2022/07/13 08:05:21;;;;;;;2.70;1.80;;;;;;;37.19;20.65;99729.81;5072081;28;20203;-58
2022/07/13 08:07:48;;;;;;;1.70;1.60;;;;;;;37.73;20.74;99732.16;5071559;28;20231;-55
2022/07/13 08:10:16;;;;;;;1.05;1.02;;;;;;;37.83;20.14;99731.69;5071538;28;20203;-56
2022/07/13 08:12:43;;;;;;;4.20;0.98;;;;;;;38.14;19.46;99730.97;5071668;28;20199;-55
2022/07/13 08:15:10;;;;;;;6.05;1.20;;;;;;;38.70;19.09;99727.47;5071108;28;20294;-55
2022/07/13 08:17:39;;;;;;;5.28;2.20;;;;;;;38.99;18.92;99736.84;5071681;28;20861;-56
2022/07/13 08:20:07;;;;;;;3.08;1.20;;;;;;;39.50;18.47;99734.69;5071249;28;20695;-55
2022/07/13 08:22:34;;;;;;;5.20;1.40;;;;;;;38.01;18.97;99729.13;5071356;28;20290;-55
2022/07/13 08:25:01;;;;;;;3.50;1.40;;;;;;;37.77;19.30;99735.28;5071370;28;20706;-55
2022/07/13 08:27:28;;;;;;;4.65;1.52;;;;;;;37.64;19.47;99721.78;5071247;28;20286;-54
2022/07/13 08:29:55;;;;;;;2.17;1.13;;;;;;;36.97;20.30;99720.22;5071283;28;20188;-56
2022/07/13 08:32:22;;;;;;;2.72;1.50;;;;;;;37.27;19.76;99721.44;5071315;28;20202;-55
2022/07/13 08:40:20;;;;;;;4.70;1.50;;;;;;;35.77;21.62;99712.94;5073929;28;20235;-54
2022/07/13 08:42:48;;;;;;;3.25;1.10;;;;;;;35.75;21.13;99714.16;5050549;28;20614;-55
2022/07/13 08:45:15;;;;;;;4.28;2.45;;;;;;;35.56;21.39;99705.72;5050764;28;20221;-53
2022/07/13 08:47:45;;;;;;;6.53;1.30;;;;;;;34.59;21.25;99704.81;5050549;28;20725;-55
2022/07/13 08:50:14;;;;;;;1.17;1.17;;;;;;;34.42;21.81;99698.88;5049851;28;20274;-55
2022/07/13 08:52:42;;;;;;;2.78;1.40;;;;;;;34.13;22.42;99710.56;5068644;28;20259;-54
2022/07/13 08:55:10;;;;;;;7.95;3.95;;;;;;;34.37;21.71;99711.25;5070624;28;20724;-54
2022/07/13 08:57:39;;;;;;;3.45;1.50;;;;;;;34.27;22.17;99700.81;5070522;28;20216;-54
2022/07/13 09:00:09;;;;;;;2.10;1.58;;;;;;;34.13;22.67;99701.66;5070375;28;20231;-57
2022/07/13 09:02:36;;;;;;;4.80;1.60;;;;;;;34.20;23.98;99703.38;5070504;28;20219;-58
2022/07/13 09:05:05;;;;;;;2.03;1.35;;;;;;;34.24;23.51;99703.84;5070544;28;20228;-59
2022/07/13 09:07:34;;;;;;;1.27;1.15;;;;;;;33.83;23.75;99707.13;5070222;28;20232;-58
2022/07/13 09:10:02;;;;;;;9.98;1.45;;;;;;;34.13;24.12;99707.03;5070216;28;20220;-59
2022/07/13 09:12:30;;;;;;;6.40;2.28;;;;;;;34.10;22.58;99697.47;5070519;28;20758;-60
2022/07/13 09:14:58;;;;;;;2.83;1.40;;;;;;;33.94;22.59;99708.50;5070638;28;20311;-60
2022/07/13 09:17:38;;;;;;;1.85;1.48;;;;;;;33.26;22.60;99706.13;5087477;28;20219;-60
2022/07/13 09:20:21;;;;;;;8.27;4.63;;;;;;;33.38;23.61;99699.28;5091050;28;20613;-59
2022/07/13 09:22:51;;;;;;;5.68;3.08;;;;;;;33.84;23.97;99707.97;5089022;28;20290;-60
2022/07/13 09:25:26;;;;;;;5.10;2.00;;;;;;;34.05;22.50;99705.31;5090537;28;20226;-55
2022/07/13 09:27:53;;;;;;;4.05;2.17;;;;;;;34.03;22.34;99709.22;5090114;28;20202;-54
2022/07/13 09:30:25;;;;;;;3.88;1.75;;;;;;;33.64;22.16;99702.28;5089882;28;20664;-54
2022/07/13 09:32:54;;;;;;;1.75;1.10;;;;;;;33.16;22.90;99704.53;5090241;28;20272;-54
2022/07/13 09:35:23;;;;;;;1.27;1.17;;;;;;;33.53;22.70;99708.16;5090189;28;20199;-55
2022/07/13 09:37:51;;;;;;;1.23;1.23;;;;;;;33.37;22.70;99705.69;5090154;28;20691;-55
2022/07/13 09:40:19;;;;;;;2.17;1.10;;;;;;;33.34;22.47;99700.66;5090155;28;20715;-55
2022/07/13 09:46:08;;;;;;;1.30;1.20;;;;;;;33.60;23.84;99701.00;5090188;28;20667;-54
2022/07/13 09:48:30;;;;;;;1.50;1.40;;;;;;;34.23;21.93;99694.09;5090331;28;20320;-54
2022/07/13 09:50:57;;;;;;;2.85;1.30;;;;;;;34.41;21.70;99694.53;5089918;28;20648;-55
2022/07/13 09:53:27;;;;;;;3.10;1.45;;;;;;;34.22;21.88;99689.72;5089978;28;20286;-55
2022/07/13 09:55:56;;;;;;;6.35;1.40;;;;;;;33.81;22.10;99693.03;5089865;28;20202;-54
2022/07/13 09:58:28;;;;;;;2.92;1.60;;;;;;;33.47;22.64;99690.06;5089892;28;20260;-54
2022/07/13 10:00:57;;;;;;;6.22;1.70;;;;;;;33.75;22.79;99683.00;5089798;28;20225;-59
2022/07/13 10:03:24;;;;;;;1.02;1.02;;;;;;;33.55;22.69;99676.50;5089930;28;20710;-59
2022/07/13 10:05:53;;;;;;;1.98;1.77;;;;;;;33.80;22.32;99680.56;5090298;28;20733;-59
2022/07/13 10:08:20;;;;;;;2.85;1.30;;;;;;;33.78;22.43;99679.94;5079188;28;20319;-59
2022/07/13 10:10:49;;;;;;;3.28;1.50;;;;;;;33.52;22.18;99671.53;5068891;28;20234;-58
2022/07/13 10:13:18;;;;;;;1.60;1.50;;;;;;;33.86;22.75;99669.03;5069366;28;20191;-58
2022/07/13 10:15:45;;;;;;;17.80;2.10;;;;;;;33.26;22.44;99666.63;5066611;28;20203;-59
2022/07/13 10:18:17;;;;;;;7.65;1.40;;;;;;;33.27;22.41;99656.69;5069697;28;20572;-59
2022/07/13 10:20:54;;;;;;;3.42;1.60;;;;;;;33.02;22.78;99654.25;5069667;28;20282;-58
2022/07/13 10:23:38;;;;;;;1.98;1.20;;;;;;;32.69;22.81;99650.19;5069166;28;20195;-59
2022/07/13 10:26:19;;;;;;;1.52;1.38;;;;;;;32.60;23.73;99651.31;5066936;28;20757;-59
2022/07/13 10:29:01;;;;;;;4.38;1.40;;;;;;;32.55;23.79;99648.31;5069633;28;20290;-59
2022/07/13 10:31:30;;;;;;;1.48;1.17;;;;;;;32.15;23.74;99649.47;5069538;28;20192;-58
2022/07/13 10:33:57;;;;;;;7.93;1.40;;;;;;;31.88;24.02;99645.44;5069286;28;20196;-59
2022/07/13 10:36:52;;;;;;;2.78;1.30;;;;;;;31.73;24.23;99635.47;5069820;28;20302;-58
2022/07/13 10:39:21;;;;;;;5.38;1.70;;;;;;;31.75;24.67;99632.59;5069268;28;20277;-54
2022/07/13 10:42:04;;;;;;;10.90;1.92;;;;;;;31.58;25.87;99626.47;5070501;28;20633;-55
2022/07/13 10:44:36;;;;;;;7.15;1.50;;;;;;;31.63;25.31;99620.56;5073478;28;20207;-55
2022/07/13 10:47:04;;;;;;;1.60;1.50;;;;;;;31.63;25.44;99621.44;5073206;28;20691;-55
2022/07/13 10:49:36;;;;;;;1.83;1.50;;;;;;;31.51;25.15;99606.72;5073429;28;20195;-55
2022/07/13 10:52:51;;;;;;;2.45;1.38;;;;;;;31.67;24.99;99609.34;5073537;28;20224;-55
2022/07/13 10:55:35;;;;;;;2.75;1.58;;;;;;;31.49;25.14;99611.41;5073195;28;20225;-54
2022/07/13 10:58:42;;;;;;;2.15;1.73;;;;;;;31.46;25.65;99617.16;5072981;28;20249;-55
2022/07/13 11:01:36;;;;;;;3.00;1.60;;;;;;;31.34;25.59;99607.81;5072909;28;20219;-53
2022/07/13 11:04:03;;;;;;;4.15;1.40;;;;;;;31.46;26.11;99606.41;5065427;28;20200;-54
2022/07/13 11:06:30;;;;;;;3.33;1.77;;;;;;;31.38;25.33;99606.44;5072723;28;20291;-54
2022/07/13 11:09:14;;;;;;;3.78;1.90;;;;;;;31.46;25.71;99598.38;5072610;28;20232;-54
2022/07/13 11:11:46;;;;;;;6.03;1.70;;;;;;;31.56;26.20;99612.41;5072596;28;20227;-55
2022/07/13 11:14:48;;;;;;;2.20;1.33;;;;;;;31.55;24.91;99605.34;5072457;28;20203;-54
2022/07/13 11:17:20;;;;;;;3.10;1.50;;;;;;;31.66;25.38;99604.97;5068538;28;20292;-54
2022/07/13 11:20:09;;;;;;;4.65;1.60;;;;;;;31.50;25.74;99596.16;5072636;28;20204;-54
2022/07/13 11:25:32;;;;;;;2.47;1.70;;;;;;;31.32;26.03;99574.97;5072676;28;20195;-56
2022/07/13 11:28:29;;;;;;;4.88;1.67;;;;;;;31.29;25.68;99583.34;5072409;28;20201;-54
2022/07/13 11:30:57;;;;;;;3.03;1.45;;;;;;;31.17;25.22;99585.59;5072070;28;20188;-55
2022/07/13 11:33:25;;;;;;;1.83;1.50;;;;;;;31.29;25.67;99584.19;5072249;28;20200;-55
2022/07/13 11:35:52;;;;;;;3.00;1.40;;;;;;;31.22;25.07;99577.88;5072103;28;20196;-55
2022/07/13 11:38:20;;;;;;;4.13;1.65;;;;;;;31.22;24.94;99585.06;5072778;28;20758;-56
2022/07/13 11:40:48;;;;;;;3.88;1.33;;;;;;;31.18;24.50;99578.38;5072143;28;20220;-55
2022/07/13 11:43:15;;;;;;;2.20;1.38;;;;;;;31.20;23.65;99571.84;5072160;28;20287;-55
2022/07/13 11:45:43;;;;;;;2.67;1.33;;;;;;;31.00;24.42;99578.59;5072054;28;20200;-60
2022/07/13 11:48:15;;;;;;;2.22;2.05;;;;;;;31.08;25.08;99581.25;5072418;28;20199;-59
2022/07/13 11:50:47;;;;;;;2.92;1.30;;;;;;;31.12;24.38;99584.44;5071995;28;20253;-58
2022/07/13 11:53:25;;;;;;;2.88;2.13;;;;;;;31.31;24.87;99584.03;5071068;28;20255;-54